sensor_id;sensor_type;location;lat;lon;timestamp;P1;durP1;ratioP1;P2;durP2;ratioP2
70829;SDS011;58451;51.550;7.208;2022-12-16T00:00:47;120.00;;;45.10;;
70829;SDS011;58451;51.550;7.208;2022-12-16T00:02:21;114.60;;;39.20;;
70829;SDS011;58451;51.550;7.208;2022-12-16T00:03:56;106.10;;;36.80;;
70829;SDS011;58451;51.550;7.208;2022-12-16T00:05:29;98.70;;;33.00;;
70829;SDS011;58451;51.550;7.208;2022-12-16T00:07:00;103.90;;;33.80;;
70829;SDS011;58451;51.550;7.208;2022-12-16T00:08:36;106.10;;;36.60;;
70829;SDS011;58451;51.550;7.208;2022-12-16T00:10:09;107.10;;;37.80;;
70829;SDS011;58451;51.550;7.208;2022-12-16T00:11:41;110.90;;;35.60;;
70829;SDS011;58451;51.550;7.208;2022-12-16T00:13:12;114.50;;;38.20;;
70829;SDS011;58451;51.550;7.208;2022-12-16T00:14:44;116.00;;;39.60;;
70829;SDS011;58451;51.550;7.208;2022-12-16T00:16:19;121.70;;;40.30;;
70829;SDS011;58451;51.550;7.208;2022-12-16T00:17:52;124.30;;;40.00;;
70829;SDS011;58451;51.550;7.208;2022-12-16T00:19:25;120.60;;;40.10;;
70829;SDS011;58451;51.550;7.208;2022-12-16T00:20:58;122.70;;;38.00;;
70829;SDS011;58451;51.550;7.208;2022-12-16T00:22:31;99.90;;;32.70;;
70829;SDS011;58451;51.550;7.208;2022-12-16T00:24:04;116.10;;;38.20;;
70829;SDS011;58451;51.550;7.208;2022-12-16T00:25:36;112.30;;;36.70;;
70829;SDS011;58451;51.550;7.208;2022-12-16T00:27:10;93.90;;;30.80;;
70829;SDS011;58451;51.550;7.208;2022-12-16T00:28:42;77.00;;;26.70;;
70829;SDS011;58451;51.550;7.208;2022-12-16T00:30:14;73.00;;;24.60;;
70829;SDS011;58451;51.550;7.208;2022-12-16T00:31:48;105.40;;;33.90;;
70829;SDS011;58451;51.550;7.208;2022-12-16T00:33:27;112.90;;;38.90;;
70829;SDS011;58451;51.550;7.208;2022-12-16T00:35:03;113.40;;;37.20;;
70829;SDS011;58451;51.550;7.208;2022-12-16T00:36:35;116.40;;;37.20;;
70829;SDS011;58451;51.550;7.208;2022-12-16T00:38:09;103.50;;;36.00;;
70829;SDS011;58451;51.550;7.208;2022-12-16T00:39:41;113.90;;;38.30;;
70829;SDS011;58451;51.550;7.208;2022-12-16T00:41:14;111.60;;;37.70;;
70829;SDS011;58451;51.550;7.208;2022-12-16T00:42:47;109.50;;;36.90;;
70829;SDS011;58451;51.550;7.208;2022-12-16T00:44:19;115.90;;;36.90;;
70829;SDS011;58451;51.550;7.208;2022-12-16T00:45:51;116.60;;;34.80;;
70829;SDS011;58451;51.550;7.208;2022-12-16T00:47:24;109.90;;;36.90;;
70829;SDS011;58451;51.550;7.208;2022-12-16T00:48:57;111.20;;;36.20;;
70829;SDS011;58451;51.550;7.208;2022-12-16T00:50:30;112.90;;;35.10;;
70829;SDS011;58451;51.550;7.208;2022-12-16T00:52:02;118.70;;;37.20;;
70829;SDS011;58451;51.550;7.208;2022-12-16T00:53:35;117.80;;;37.70;;
70829;SDS011;58451;51.550;7.208;2022-12-16T00:55:10;110.80;;;38.50;;
70829;SDS011;58451;51.550;7.208;2022-12-16T00:56:50;108.70;;;36.70;;
70829;SDS011;58451;51.550;7.208;2022-12-16T00:58:22;107.10;;;37.00;;
70829;SDS011;58451;51.550;7.208;2022-12-16T00:59:54;105.20;;;35.40;;
70829;SDS011;58451;51.550;7.208;2022-12-16T01:01:27;119.70;;;37.80;;
70829;SDS011;58451;51.550;7.208;2022-12-16T01:02:59;113.90;;;38.00;;
70829;SDS011;58451;51.550;7.208;2022-12-16T01:04:36;131.20;;;40.80;;
70829;SDS011;58451;51.550;7.208;2022-12-16T01:06:15;115.80;;;38.00;;
70829;SDS011;58451;51.550;7.208;2022-12-16T01:07:48;101.20;;;33.70;;
70829;SDS011;58451;51.550;7.208;2022-12-16T01:09:22;115.60;;;38.40;;
70829;SDS011;58451;51.550;7.208;2022-12-16T01:10:57;119.10;;;38.30;;
70829;SDS011;58451;51.550;7.208;2022-12-16T01:12:29;108.90;;;38.20;;
70829;SDS011;58451;51.550;7.208;2022-12-16T01:14:01;113.00;;;34.40;;
70829;SDS011;58451;51.550;7.208;2022-12-16T01:15:33;107.70;;;34.80;;
70829;SDS011;58451;51.550;7.208;2022-12-16T01:17:11;96.60;;;34.50;;
70829;SDS011;58451;51.550;7.208;2022-12-16T01:18:43;104.90;;;34.80;;
70829;SDS011;58451;51.550;7.208;2022-12-16T01:20:15;100.80;;;31.40;;
70829;SDS011;58451;51.550;7.208;2022-12-16T01:21:47;90.90;;;30.60;;
70829;SDS011;58451;51.550;7.208;2022-12-16T01:23:43;97.80;;;32.50;;
70829;SDS011;58451;51.550;7.208;2022-12-16T01:25:15;89.60;;;30.90;;
70829;SDS011;58451;51.550;7.208;2022-12-16T01:26:48;59.90;;;19.70;;
70829;SDS011;58451;51.550;7.208;2022-12-16T01:28:22;87.00;;;28.50;;
70829;SDS011;58451;51.550;7.208;2022-12-16T01:29:54;94.10;;;31.70;;
70829;SDS011;58451;51.550;7.208;2022-12-16T01:31:26;85.90;;;31.40;;
70829;SDS011;58451;51.550;7.208;2022-12-16T01:32:59;95.20;;;31.20;;
70829;SDS011;58451;51.550;7.208;2022-12-16T01:34:32;102.50;;;33.50;;
70829;SDS011;58451;51.550;7.208;2022-12-16T01:36:31;86.90;;;28.80;;
70829;SDS011;58451;51.550;7.208;2022-12-16T01:38:04;84.70;;;28.50;;
70829;SDS011;58451;51.550;7.208;2022-12-16T01:39:37;85.50;;;29.80;;
70829;SDS011;58451;51.550;7.208;2022-12-16T01:41:12;86.30;;;30.40;;
70829;SDS011;58451;51.550;7.208;2022-12-16T01:44:50;67.70;;;23.70;;
70829;SDS011;58451;51.550;7.208;2022-12-16T01:46:28;78.80;;;25.60;;
70829;SDS011;58451;51.550;7.208;2022-12-16T01:49:01;79.10;;;28.00;;
70829;SDS011;58451;51.550;7.208;2022-12-16T01:50:13;85.50;;;28.70;;
70829;SDS011;58451;51.550;7.208;2022-12-16T01:51:49;84.40;;;28.60;;
70829;SDS011;58451;51.550;7.208;2022-12-16T01:53:26;75.90;;;26.70;;
70829;SDS011;58451;51.550;7.208;2022-12-16T01:55:02;81.20;;;29.20;;
70829;SDS011;58451;51.550;7.208;2022-12-16T01:56:49;82.90;;;28.70;;
70829;SDS011;58451;51.550;7.208;2022-12-16T01:58:29;84.80;;;27.80;;
70829;SDS011;58451;51.550;7.208;2022-12-16T02:00:06;62.10;;;22.30;;
70829;SDS011;58451;51.550;7.208;2022-12-16T02:01:43;78.00;;;25.90;;
70829;SDS011;58451;51.550;7.208;2022-12-16T02:03:15;86.20;;;29.30;;
70829;SDS011;58451;51.550;7.208;2022-12-16T02:04:48;82.80;;;29.40;;
70829;SDS011;58451;51.550;7.208;2022-12-16T02:06:39;88.90;;;28.80;;
70829;SDS011;58451;51.550;7.208;2022-12-16T02:09:49;74.20;;;26.50;;
70829;SDS011;58451;51.550;7.208;2022-12-16T02:39:38;77.50;;;26.30;;
70829;SDS011;58451;51.550;7.208;2022-12-16T02:42:10;76.70;;;26.00;;
70829;SDS011;58451;51.550;7.208;2022-12-16T02:43:58;59.10;;;18.70;;
70829;SDS011;58451;51.550;7.208;2022-12-16T02:45:41;81.50;;;25.10;;
70829;SDS011;58451;51.550;7.208;2022-12-16T02:47:14;76.50;;;24.90;;
70829;SDS011;58451;51.550;7.208;2022-12-16T02:48:46;72.00;;;25.00;;
70829;SDS011;58451;51.550;7.208;2022-12-16T02:52:20;79.70;;;27.10;;
70829;SDS011;58451;51.550;7.208;2022-12-16T02:54:00;84.70;;;27.40;;
70829;SDS011;58451;51.550;7.208;2022-12-16T02:55:48;85.20;;;27.80;;
70829;SDS011;58451;51.550;7.208;2022-12-16T02:59:43;85.00;;;27.30;;
70829;SDS011;58451;51.550;7.208;2022-12-16T03:01:42;82.10;;;26.70;;
70829;SDS011;58451;51.550;7.208;2022-12-16T03:03:47;86.00;;;27.50;;
70829;SDS011;58451;51.550;7.208;2022-12-16T03:05:38;79.30;;;25.50;;
70829;SDS011;58451;51.550;7.208;2022-12-16T03:07:17;71.10;;;24.90;;
70829;SDS011;58451;51.550;7.208;2022-12-16T03:08:56;81.30;;;25.00;;
70829;SDS011;58451;51.550;7.208;2022-12-16T03:10:41;70.10;;;23.40;;
70829;SDS011;58451;51.550;7.208;2022-12-16T03:12:21;67.90;;;24.70;;
70829;SDS011;58451;51.550;7.208;2022-12-16T03:13:58;85.10;;;27.70;;
70829;SDS011;58451;51.550;7.208;2022-12-16T03:15:33;81.30;;;27.00;;
70829;SDS011;58451;51.550;7.208;2022-12-16T03:17:07;75.00;;;27.40;;
70829;SDS011;58451;51.550;7.208;2022-12-16T03:18:43;80.70;;;26.70;;
70829;SDS011;58451;51.550;7.208;2022-12-16T03:20:34;73.40;;;25.40;;
70829;SDS011;58451;51.550;7.208;2022-12-16T03:22:16;75.90;;;26.00;;
70829;SDS011;58451;51.550;7.208;2022-12-16T03:24:02;86.20;;;25.50;;
70829;SDS011;58451;51.550;7.208;2022-12-16T03:25:43;80.50;;;26.10;;
70829;SDS011;58451;51.550;7.208;2022-12-16T03:29:11;74.80;;;27.80;;
70829;SDS011;58451;51.550;7.208;2022-12-16T03:30:51;80.40;;;28.00;;
70829;SDS011;58451;51.550;7.208;2022-12-16T03:32:52;77.40;;;25.30;;
70829;SDS011;58451;51.550;7.208;2022-12-16T03:36:55;79.40;;;25.10;;
70829;SDS011;58451;51.550;7.208;2022-12-16T03:38:37;77.40;;;26.50;;
70829;SDS011;58451;51.550;7.208;2022-12-16T03:40:12;77.00;;;25.00;;
70829;SDS011;58451;51.550;7.208;2022-12-16T03:41:48;81.60;;;27.20;;
70829;SDS011;58451;51.550;7.208;2022-12-16T03:43:24;86.70;;;28.00;;
70829;SDS011;58451;51.550;7.208;2022-12-16T03:44:58;85.80;;;27.60;;
70829;SDS011;58451;51.550;7.208;2022-12-16T03:46:30;77.80;;;26.10;;
70829;SDS011;58451;51.550;7.208;2022-12-16T03:48:06;71.50;;;24.00;;
70829;SDS011;58451;51.550;7.208;2022-12-16T03:49:41;76.60;;;26.70;;
70829;SDS011;58451;51.550;7.208;2022-12-16T03:51:17;80.90;;;26.50;;
70829;SDS011;58451;51.550;7.208;2022-12-16T03:52:50;79.70;;;27.00;;
70829;SDS011;58451;51.550;7.208;2022-12-16T03:54:22;76.20;;;25.80;;
70829;SDS011;58451;51.550;7.208;2022-12-16T03:55:55;79.10;;;26.10;;
70829;SDS011;58451;51.550;7.208;2022-12-16T03:57:26;74.30;;;24.50;;
70829;SDS011;58451;51.550;7.208;2022-12-16T03:58:58;69.80;;;22.80;;
70829;SDS011;58451;51.550;7.208;2022-12-16T04:00:32;56.40;;;17.60;;
70829;SDS011;58451;51.550;7.208;2022-12-16T04:02:04;66.00;;;25.00;;
70829;SDS011;58451;51.550;7.208;2022-12-16T04:03:37;77.00;;;25.80;;
70829;SDS011;58451;51.550;7.208;2022-12-16T04:05:09;75.10;;;25.70;;
70829;SDS011;58451;51.550;7.208;2022-12-16T04:06:41;75.40;;;24.80;;
70829;SDS011;58451;51.550;7.208;2022-12-16T04:08:13;96.30;;;31.30;;
70829;SDS011;58451;51.550;7.208;2022-12-16T04:09:46;81.80;;;26.70;;
70829;SDS011;58451;51.550;7.208;2022-12-16T04:11:19;76.60;;;26.40;;
70829;SDS011;58451;51.550;7.208;2022-12-16T04:13:09;72.80;;;25.20;;
70829;SDS011;58451;51.550;7.208;2022-12-16T04:15:01;67.60;;;23.20;;
70829;SDS011;58451;51.550;7.208;2022-12-16T04:16:52;59.30;;;19.10;;
70829;SDS011;58451;51.550;7.208;2022-12-16T04:18:44;75.00;;;24.70;;
70829;SDS011;58451;51.550;7.208;2022-12-16T04:20:41;73.90;;;25.80;;
70829;SDS011;58451;51.550;7.208;2022-12-16T04:22:37;72.00;;;24.40;;
70829;SDS011;58451;51.550;7.208;2022-12-16T04:24:32;45.20;;;16.40;;
70829;SDS011;58451;51.550;7.208;2022-12-16T04:26:05;72.30;;;25.90;;
70829;SDS011;58451;51.550;7.208;2022-12-16T04:27:37;77.10;;;26.00;;
70829;SDS011;58451;51.550;7.208;2022-12-16T04:29:09;71.30;;;25.30;;
70829;SDS011;58451;51.550;7.208;2022-12-16T04:30:41;76.80;;;26.70;;
70829;SDS011;58451;51.550;7.208;2022-12-16T04:32:14;75.90;;;26.90;;
70829;SDS011;58451;51.550;7.208;2022-12-16T04:33:46;76.40;;;26.30;;
70829;SDS011;58451;51.550;7.208;2022-12-16T04:35:38;53.30;;;17.90;;
70829;SDS011;58451;51.550;7.208;2022-12-16T04:37:28;79.70;;;26.00;;
70829;SDS011;58451;51.550;7.208;2022-12-16T04:39:19;73.50;;;25.10;;
70829;SDS011;58451;51.550;7.208;2022-12-16T04:41:09;71.30;;;24.40;;
70829;SDS011;58451;51.550;7.208;2022-12-16T04:43:00;62.20;;;20.10;;
70829;SDS011;58451;51.550;7.208;2022-12-16T04:44:50;80.90;;;26.00;;
70829;SDS011;58451;51.550;7.208;2022-12-16T04:46:41;75.80;;;25.80;;
70829;SDS011;58451;51.550;7.208;2022-12-16T04:48:31;51.40;;;16.30;;
70829;SDS011;58451;51.550;7.208;2022-12-16T04:50:22;62.90;;;22.20;;
70829;SDS011;58451;51.550;7.208;2022-12-16T04:52:13;75.50;;;26.30;;
70829;SDS011;58451;51.550;7.208;2022-12-16T04:54:04;75.10;;;23.20;;
70829;SDS011;58451;51.550;7.208;2022-12-16T04:55:54;75.90;;;25.60;;
70829;SDS011;58451;51.550;7.208;2022-12-16T04:57:50;82.80;;;26.40;;
70829;SDS011;58451;51.550;7.208;2022-12-16T04:59:44;74.30;;;25.50;;
70829;SDS011;58451;51.550;7.208;2022-12-16T05:01:42;74.00;;;24.10;;
70829;SDS011;58451;51.550;7.208;2022-12-16T05:03:33;64.00;;;21.80;;
70829;SDS011;58451;51.550;7.208;2022-12-16T05:05:25;67.70;;;22.10;;
70829;SDS011;58451;51.550;7.208;2022-12-16T05:07:16;70.40;;;25.30;;
70829;SDS011;58451;51.550;7.208;2022-12-16T05:09:09;69.10;;;23.90;;
